Time;durP1;ratioP1;P1;durP2;ratioP2;P2;SDS_P1;SDS_P2;PMS_P1;PMS_P2;Temp;Humidity;BMP_temperature;BMP_pressure;BME280_temperature;BME280_humidity;BME280_pressure;Samples;Min_cycle;Max_cycle;Signal;HPM_P1;HPM_P2
2023/08/21 00:00:04;;;;;;;0.80;0.50;;;22.80;68.60;;;;;;5009576;28;20397;-74
2023/08/21 00:02:30;;;;;;;1.75;0.70;;;22.70;68.60;;;;;;5006556;28;20048;-73
2023/08/21 00:04:55;;;;;;;0.47;0.45;;;22.70;68.70;;;;;;5007936;28;20383;-74
2023/08/21 00:07:21;;;;;;;0.57;0.50;;;22.60;68.90;;;;;;5010219;28;20965;-74
2023/08/21 00:09:47;;;;;;;3.13;0.60;;;22.60;69.10;;;;;;5009860;28;20172;-74
2023/08/21 00:12:13;;;;;;;0.30;0.30;;;22.60;69.10;;;;;;5013563;28;20581;-74
2023/08/21 00:14:38;;;;;;;0.43;0.40;;;22.60;69.10;;;;;;5012022;28;20018;-74
2023/08/21 00:17:04;;;;;;;0.63;0.50;;;22.60;69.20;;;;;;5011556;28;20412;-73
2023/08/21 00:19:30;;;;;;;0.40;0.40;;;22.60;69.20;;;;;;5009492;28;20034;-74
2023/08/21 00:21:56;;;;;;;0.63;0.63;;;22.60;69.20;;;;;;5011309;28;20495;-74
2023/08/21 00:24:22;;;;;;;2.38;0.63;;;22.50;69.20;;;;;;5014573;28;20030;-74
2023/08/21 00:26:47;;;;;;;3.13;0.98;;;22.50;69.20;;;;;;5009118;28;20061;-73
2023/08/21 00:29:13;;;;;;;1.30;0.52;;;22.50;69.30;;;;;;5008882;28;20040;-74
2023/08/21 00:31:39;;;;;;;3.92;0.70;;;22.50;69.40;;;;;;5012397;28;20026;-67
2023/08/21 00:34:05;;;;;;;0.68;0.40;;;22.50;69.40;;;;;;5018237;28;20051;-67
2023/08/21 00:36:30;;;;;;;0.40;0.38;;;22.50;69.50;;;;;;5009274;28;20509;-67
2023/08/21 00:38:56;;;;;;;0.63;0.60;;;22.50;69.60;;;;;;5018271;28;20135;-67
2023/08/21 00:41:21;;;;;;;1.00;0.82;;;22.40;69.70;;;;;;5010454;28;20080;-68
2023/08/21 00:43:47;;;;;;;1.00;0.50;;;22.40;69.90;;;;;;5016131;28;20032;-68
2023/08/21 00:46:14;;;;;;;0.40;0.40;;;22.40;70.10;;;;;;5007998;28;20046;-67
2023/08/21 00:48:40;;;;;;;1.75;0.90;;;22.40;70.20;;;;;;5010469;28;20030;-68
2023/08/21 00:51:06;;;;;;;0.55;0.55;;;22.40;70.20;;;;;;5014917;28;20044;-67
2023/08/21 00:53:33;;;;;;;1.63;0.90;;;22.40;70.20;;;;;;5011634;28;20030;-67
2023/08/21 00:55:58;;;;;;;0.85;0.60;;;22.40;70.20;;;;;;5005463;28;20440;-67
2023/08/21 00:58:24;;;;;;;1.35;0.80;;;22.40;70.10;;;;;;5020558;28;20034;-67
2023/08/21 01:00:52;;;;;;;0.47;0.47;;;22.40;70.20;;;;;;5008913;28;20053;-67
2023/08/21 01:03:18;;;;;;;0.60;0.50;;;22.40;70.10;;;;;;5013873;28;20037;-67
2023/08/21 01:05:44;;;;;;;0.25;0.25;;;22.40;70.00;;;;;;5008585;28;20520;-67
2023/08/21 01:08:41;;;;;;;2.05;0.80;;;22.40;70.10;;;;;;5011765;28;20033;-67
2023/08/21 01:11:25;;;;;;;0.70;0.70;;;22.50;70.10;;;;;;5010920;28;20030;-67
2023/08/21 01:14:14;;;;;;;1.35;0.55;;;22.40;70.20;;;;;;5028263;28;20034;-68
2023/08/21 01:16:43;;;;;;;0.30;0.30;;;22.40;70.30;;;;;;5011569;28;20022;-67
2023/08/21 01:19:22;;;;;;;1.55;0.52;;;22.30;70.60;;;;;;5012309;28;20022;-67
2023/08/21 01:21:48;;;;;;;0.85;0.40;;;22.30;70.40;;;;;;5007698;28;20545;-67
2023/08/21 01:24:13;;;;;;;0.50;0.50;;;22.20;70.40;;;;;;5008456;28;20145;-73
2023/08/21 01:26:39;;;;;;;2.00;0.60;;;22.20;70.50;;;;;;5012456;28;20111;-74
2023/08/21 01:29:05;;;;;;;0.70;0.70;;;22.20;70.60;;;;;;5010449;28;20037;-73
2023/08/21 01:31:35;;;;;;;0.30;0.30;;;22.10;70.60;;;;;;5010866;28;20045;-74
2023/08/21 01:34:06;;;;;;;0.85;0.50;;;22.10;70.60;;;;;;5007490;28;20241;-74
2023/08/21 01:36:32;;;;;;;0.40;0.40;;;22.10;70.70;;;;;;5012070;28;20025;-74
2023/08/21 01:38:57;;;;;;;0.88;0.80;;;22.00;70.80;;;;;;5012099;28;20042;-74
2023/08/21 01:41:24;;;;;;;0.73;0.43;;;22.00;71.00;;;;;;5009987;28;20022;-73
2023/08/21 01:43:50;;;;;;;0.73;0.50;;;21.90;71.20;;;;;;5012298;28;20045;-73
2023/08/21 01:46:16;;;;;;;1.15;0.70;;;21.90;71.40;;;;;;5014016;28;20053;-73
2023/08/21 01:48:42;;;;;;;0.50;0.50;;;21.90;71.40;;;;;;5010083;28;20111;-74
2023/08/21 01:51:08;;;;;;;0.40;0.40;;;21.80;71.20;;;;;;5008608;28;20037;-74
2023/08/21 01:53:33;;;;;;;0.50;0.50;;;21.80;71.30;;;;;;5025486;28;20132;-74
2023/08/21 01:55:59;;;;;;;0.35;0.35;;;21.80;71.30;;;;;;5021025;28;20444;-74
2023/08/21 01:58:25;;;;;;;0.60;0.60;;;21.80;71.30;;;;;;5011611;28;20034;-74
2023/08/21 02:00:50;;;;;;;0.52;0.50;;;21.70;71.40;;;;;;5008951;28;20113;-74
2023/08/21 02:03:16;;;;;;;1.02;0.57;;;21.70;71.50;;;;;;5011110;28;20052;-74
2023/08/21 02:05:42;;;;;;;0.65;0.45;;;21.70;71.60;;;;;;4972050;28;20197;-74
2023/08/21 02:08:13;;;;;;;2.85;0.50;;;21.70;71.80;;;;;;5022265;28;20022;-74
2023/08/21 02:10:50;;;;;;;0.30;0.30;;;21.70;71.90;;;;;;5011313;28;20404;-74
2023/08/21 02:13:15;;;;;;;2.05;0.80;;;21.70;71.80;;;;;;5012241;28;20032;-74
2023/08/21 02:15:41;;;;;;;0.40;0.40;;;21.70;71.70;;;;;;5012430;28;20030;-74
2023/08/21 02:18:07;;;;;;;2.08;0.55;;;21.70;71.70;;;;;;5010494;28;20169;-74
2023/08/21 02:20:33;;;;;;;0.82;0.60;;;21.70;71.80;;;;;;5004111;28;20033;-74
2023/08/21 02:22:58;;;;;;;1.48;0.30;;;21.70;71.90;;;;;;5014538;28;20029;-68
2023/08/21 02:25:24;;;;;;;0.50;0.50;;;21.70;72.10;;;;;;5008073;28;20042;-67
2023/08/21 02:27:50;;;;;;;0.50;0.30;;;21.70;72.10;;;;;;5007406;28;20522;-67
2023/08/21 02:30:15;;;;;;;0.40;0.40;;;21.70;71.90;;;;;;5021428;28;20034;-67
2023/08/21 02:32:41;;;;;;;2.30;0.60;;;21.70;71.90;;;;;;5004054;28;20061;-67
2023/08/21 02:35:08;;;;;;;0.90;0.70;;;21.70;72.00;;;;;;5014735;28;20119;-67
2023/08/21 02:37:34;;;;;;;1.58;0.93;;;21.70;71.90;;;;;;5006984;28;20022;-74
2023/08/21 02:40:00;;;;;;;1.10;0.60;;;21.70;71.80;;;;;;5009654;28;20022;-74
2023/08/21 02:42:26;;;;;;;1.00;0.60;;;21.70;71.80;;;;;;5013503;28;20117;-73
2023/08/21 02:44:51;;;;;;;0.47;0.40;;;21.70;71.90;;;;;;5012504;28;20152;-74
2023/08/21 02:47:17;;;;;;;1.35;0.50;;;21.60;72.10;;;;;;5008064;28;20052;-73
2023/08/21 02:49:43;;;;;;;0.55;0.52;;;21.70;72.10;;;;;;5010102;28;20563;-73
2023/08/21 02:52:08;;;;;;;2.15;0.52;;;21.70;72.10;;;;;;5009637;28;20424;-73
2023/08/21 02:54:34;;;;;;;2.05;0.88;;;21.70;72.20;;;;;;5018221;28;20037;-73
2023/08/21 02:57:00;;;;;;;0.63;0.35;;;21.70;72.30;;;;;;5011324;28;20256;-73
2023/08/21 02:59:25;;;;;;;1.27;0.60;;;21.60;72.30;;;;;;5009753;28;20739;-74
2023/08/21 03:01:51;;;;;;;1.05;0.52;;;21.60;72.40;;;;;;5013817;28;20504;-73
2023/08/21 03:04:17;;;;;;;1.63;0.43;;;21.70;72.40;;;;;;5015762;28;20144;-73
2023/08/21 03:06:43;;;;;;;0.40;0.40;;;21.70;72.40;;;;;;5009442;28;20476;-73
2023/08/21 03:09:08;;;;;;;0.68;0.43;;;21.70;72.20;;;;;;5010838;28;20037;-67
2023/08/21 03:11:34;;;;;;;0.40;0.40;;;21.70;72.30;;;;;;4996726;28;20030;-67
2023/08/21 03:14:00;;;;;;;1.33;0.60;;;21.60;72.40;;;;;;5010309;28;20121;-67
2023/08/21 03:16:26;;;;;;;0.57;0.47;;;21.60;72.30;;;;;;5011447;28;20033;-67
2023/08/21 03:18:57;;;;;;;1.00;0.47;;;21.70;72.50;;;;;;5006219;28;20061;-68
2023/08/21 03:21:23;;;;;;;0.50;0.50;;;21.60;72.50;;;;;;5007661;28;20396;-74
2023/08/21 03:23:55;;;;;;;1.50;0.60;;;21.60;72.50;;;;;;5009011;28;20489;-73
2023/08/21 03:26:21;;;;;;;0.88;0.50;;;21.60;72.60;;;;;;5007641;28;20048;-75
2023/08/21 03:28:47;;;;;;;0.65;0.50;;;21.60;72.60;;;;;;5009027;28;20036;-74
2023/08/21 03:31:13;;;;;;;0.50;0.50;;;21.60;72.50;;;;;;5008982;28;20034;-74
2023/08/21 03:33:38;;;;;;;0.35;0.35;;;21.60;72.50;;;;;;5013500;28;20460;-74
2023/08/21 03:36:04;;;;;;;0.60;0.60;;;21.60;72.60;;;;;;5010004;28;20378;-74
2023/08/21 03:38:30;;;;;;;0.38;0.38;;;21.60;72.60;;;;;;5009575;28;20556;-74
2023/08/21 03:40:56;;;;;;;1.00;0.50;;;21.60;72.60;;;;;;5009792;28;20029;-74
2023/08/21 03:43:21;;;;;;;1.08;0.52;;;21.60;72.60;;;;;;5007140;28;20021;-74
2023/08/21 03:45:47;;;;;;;0.85;0.57;;;21.60;72.70;;;;;;5012389;28;20496;-73
2023/08/21 03:48:13;;;;;;;0.52;0.50;;;21.60;72.80;;;;;;5006204;28;20732;-74
2023/08/21 03:50:39;;;;;;;2.60;0.40;;;21.60;72.80;;;;;;5009859;28;20034;-74
2023/08/21 03:53:04;;;;;;;0.30;0.30;;;21.70;72.90;;;;;;4993938;28;20026;-74
2023/08/21 03:55:30;;;;;;;1.00;0.52;;;21.60;72.90;;;;;;5010779;28;20077;-74
2023/08/21 03:57:56;;;;;;;0.68;0.50;;;21.60;73.00;;;;;;5012034;28;20048;-67
2023/08/21 04:00:22;;;;;;;0.75;0.70;;;21.60;73.00;;;;;;4990988;28;20039;-68
2023/08/21 04:02:48;;;;;;;0.63;0.55;;;21.60;73.00;;;;;;5014887;28;20034;-67
2023/08/21 04:05:13;;;;;;;2.05;0.70;;;21.60;73.00;;;;;;5014786;28;20169;-69
2023/08/21 04:07:39;;;;;;;1.10;1.00;;;21.60;73.10;;;;;;5012563;28;20030;-67
2023/08/21 04:10:06;;;;;;;1.90;0.50;;;21.60;73.10;;;;;;5012110;28;20079;-67
2023/08/21 04:12:31;;;;;;;0.85;0.52;;;21.50;73.10;;;;;;5011324;28;20030;-67
2023/08/21 04:14:57;;;;;;;1.83;0.70;;;21.50;73.20;;;;;;5015261;28;20056;-66
2023/08/21 04:17:24;;;;;;;1.05;0.38;;;21.40;73.10;;;;;;5011554;28;20018;-67
2023/08/21 04:19:52;;;;;;;0.50;0.50;;;21.40;73.10;;;;;;4994539;28;20034;-67
2023/08/21 04:22:18;;;;;;;0.40;0.40;;;21.40;73.20;;;;;;5015619;28;20128;-67
2023/08/21 04:24:44;;;;;;;0.40;0.40;;;21.40;73.30;;;;;;5010905;28;20167;-74
2023/08/21 04:27:10;;;;;;;0.60;0.60;;;21.30;73.20;;;;;;5012675;28;20029;-75
2023/08/21 04:29:36;;;;;;;0.50;0.50;;;21.30;73.10;;;;;;5011851;28;20022;-74
2023/08/21 04:32:02;;;;;;;3.35;0.32;;;21.40;73.10;;;;;;5005177;28;20037;-73
2023/08/21 04:34:27;;;;;;;2.50;0.35;;;21.30;72.90;;;;;;5010699;28;20026;-73
2023/08/21 04:36:53;;;;;;;3.20;0.95;;;21.40;72.90;;;;;;5009835;28;21275;-74
2023/08/21 04:39:19;;;;;;;0.55;0.55;;;21.40;73.00;;;;;;5011297;28;20440;-74
2023/08/21 04:41:44;;;;;;;0.85;0.30;;;21.40;73.00;;;;;;5017779;28;20484;-68
2023/08/21 04:44:10;;;;;;;0.65;0.47;;;21.30;73.00;;;;;;5011538;28;20034;-68
2023/08/21 04:46:36;;;;;;;0.75;0.55;;;21.40;73.00;;;;;;5012208;28;20521;-68
2023/08/21 04:49:02;;;;;;;0.45;0.38;;;21.30;73.00;;;;;;5006161;28;20039;-74
2023/08/21 04:51:27;;;;;;;1.05;0.50;;;21.40;73.20;;;;;;5015319;28;20132;-68
2023/08/21 04:53:53;;;;;;;0.50;0.50;;;21.40;73.30;;;;;;5010452;28;20038;-68
2023/08/21 04:56:19;;;;;;;1.02;0.40;;;21.40;73.60;;;;;;5011454;28;20072;-68
2023/08/21 04:58:44;;;;;;;0.60;0.40;;;21.30;73.60;;;;;;5021938;28;20065;-74
2023/08/21 05:01:10;;;;;;;0.70;0.60;;;21.30;73.60;;;;;;5006228;28;20424;-74
2023/08/21 05:03:36;;;;;;;0.75;0.55;;;21.30;73.60;;;;;;5017690;28;20652;-74
2023/08/21 05:06:01;;;;;;;0.40;0.40;;;21.30;73.60;;;;;;5005439;28;20080;-74
2023/08/21 05:08:27;;;;;;;2.17;0.50;;;21.30;73.60;;;;;;5025626;28;20049;-75
2023/08/21 05:11:00;;;;;;;0.38;0.38;;;21.30;73.60;;;;;;5014195;28;20132;-75
2023/08/21 05:13:26;;;;;;;0.93;0.80;;;21.40;73.70;;;;;;5009750;28;20041;-75
2023/08/21 05:15:55;;;;;;;0.50;0.50;;;21.40;73.70;;;;;;5010271;28;20034;-75
2023/08/21 05:18:22;;;;;;;0.32;0.32;;;21.40;73.70;;;;;;5014000;28;20022;-75
2023/08/21 05:20:48;;;;;;;1.58;0.57;;;21.40;73.80;;;;;;5014582;28;20030;-75
2023/08/21 05:23:15;;;;;;;0.80;0.75;;;21.40;73.70;;;;;;5014569;28;20456;-75
2023/08/21 05:25:40;;;;;;;0.90;0.85;;;21.50;73.60;;;;;;5008338;28;20048;-75
2023/08/21 05:28:06;;;;;;;0.40;0.40;;;21.50;73.70;;;;;;5010617;28;20037;-75
2023/08/21 05:30:33;;;;;;;0.50;0.50;;;21.50;73.70;;;;;;5012696;28;20040;-75
2023/08/21 05:32:58;;;;;;;1.17;0.80;;;21.50;73.70;;;;;;5024976;28;20040;-74
2023/08/21 05:35:24;;;;;;;1.80;0.50;;;21.60;73.80;;;;;;5007445;28;20025;-75
2023/08/21 05:37:50;;;;;;;0.52;0.50;;;21.50;73.70;;;;;;5008574;28;20041;-75
2023/08/21 05:40:15;;;;;;;1.02;0.43;;;21.60;73.80;;;;;;5010664;28;20105;-74
2023/08/21 05:42:41;;;;;;;2.60;0.75;;;21.60;73.80;;;;;;5014247;28;20028;-75
2023/08/21 05:45:07;;;;;;;0.82;0.40;;;21.60;73.70;;;;;;5010623;28;20416;-75
2023/08/21 05:47:33;;;;;;;1.30;0.63;;;21.70;73.80;;;;;;5013644;28;20049;-75
2023/08/21 05:49:58;;;;;;;0.68;0.68;;;21.70;73.80;;;;;;5009794;28;20033;-68
2023/08/21 05:52:24;;;;;;;1.50;0.77;;;21.80;73.70;;;;;;5011633;28;20030;-67
2023/08/21 05:54:50;;;;;;;2.00;0.63;;;21.80;73.70;;;;;;5014272;28;20413;-75
2023/08/21 05:57:16;;;;;;;1.90;0.60;;;21.90;73.60;;;;;;5013302;28;20401;-75
2023/08/21 05:59:46;;;;;;;1.00;0.50;;;21.90;73.60;;;;;;5010446;28;20029;-75
2023/08/21 06:02:12;;;;;;;1.38;0.57;;;21.90;73.50;;;;;;5009757;28;20028;-75
2023/08/21 06:04:41;;;;;;;1.63;0.77;;;21.90;73.50;;;;;;5008988;28;20398;-74
2023/08/21 06:07:07;;;;;;;2.05;0.57;;;22.00;73.60;;;;;;5012433;28;20371;-74
2023/08/21 06:09:36;;;;;;;1.45;0.73;;;22.00;73.80;;;;;;5001216;28;20037;-75
2023/08/21 06:12:05;;;;;;;1.42;0.88;;;22.00;73.80;;;;;;5010530;28;20061;-75
2023/08/21 06:14:31;;;;;;;3.80;2.15;;;22.00;73.80;;;;;;5006229;28;20095;-66
2023/08/21 06:16:59;;;;;;;1.50;0.50;;;22.00;73.70;;;;;;5008555;28;20430;-68
2023/08/21 06:19:24;;;;;;;1.27;0.85;;;22.00;73.70;;;;;;5010686;28;20063;-69
2023/08/21 06:21:50;;;;;;;0.80;0.60;;;22.00;73.60;;;;;;5004590;28;20419;-74
2023/08/21 06:24:16;;;;;;;0.88;0.60;;;22.10;73.50;;;;;;5009954;28;20405;-75
2023/08/21 06:26:42;;;;;;;1.63;0.55;;;22.20;73.30;;;;;;5013312;28;20376;-69
2023/08/21 06:29:07;;;;;;;0.73;0.65;;;22.30;72.90;;;;;;4992109;28;20026;-70
2023/08/21 06:31:33;;;;;;;1.15;0.57;;;22.40;72.60;;;;;;5009289;28;20041;-67
2023/08/21 06:33:59;;;;;;;0.50;0.50;;;22.50;72.40;;;;;;5018390;28;20052;-67
2023/08/21 06:36:25;;;;;;;1.35;0.70;;;22.60;72.30;;;;;;5015129;28;20057;-67
2023/08/21 06:38:50;;;;;;;0.50;0.50;;;22.60;72.10;;;;;;5006194;28;20018;-68
2023/08/21 06:41:16;;;;;;;2.47;0.70;;;22.60;72.00;;;;;;5009450;28;20034;-67
2023/08/21 06:43:42;;;;;;;3.78;0.50;;;22.60;72.10;;;;;;5010475;28;20021;-78
2023/08/21 06:46:07;;;;;;;1.58;0.60;;;22.60;72.20;;;;;;5017500;28;20386;-75
2023/08/21 06:48:36;;;;;;;3.63;0.50;;;22.50;72.30;;;;;;5010960;28;20037;-78
2023/08/21 06:51:02;;;;;;;1.00;0.90;;;22.60;72.40;;;;;;5011761;28;20029;-77
2023/08/21 06:53:28;;;;;;;0.60;0.60;;;22.60;72.30;;;;;;5002459;28;20723;-77
2023/08/21 06:55:54;;;;;;;0.43;0.43;;;22.70;72.20;;;;;;5001362;28;20033;-77
2023/08/21 06:58:20;;;;;;;2.03;0.93;;;22.80;72.10;;;;;;5006643;28;20071;-76
2023/08/21 07:00:46;;;;;;;0.55;0.50;;;22.90;71.90;;;;;;5014776;28;20381;-74
2023/08/21 07:03:12;;;;;;;1.88;0.70;;;23.00;71.50;;;;;;5012892;28;20079;-78
2023/08/21 07:05:38;;;;;;;1.27;0.65;;;23.00;71.40;;;;;;5010912;28;20034;-75
2023/08/21 07:08:04;;;;;;;0.75;0.60;;;23.10;71.60;;;;;;5005364;28;20529;-75
2023/08/21 07:10:30;;;;;;;0.38;0.30;;;23.10;71.60;;;;;;5008571;28;20034;-73
2023/08/21 07:12:55;;;;;;;1.30;0.70;;;23.20;71.40;;;;;;5009058;28;20033;-74
2023/08/21 07:15:21;;;;;;;0.93;0.80;;;23.20;71.00;;;;;;5013602;28;20037;-74
2023/08/21 07:17:47;;;;;;;1.25;0.80;;;23.30;70.90;;;;;;5010714;28;20787;-76
2023/08/21 07:20:13;;;;;;;2.83;0.65;;;23.30;70.70;;;;;;5013071;28;20750;-76
2023/08/21 07:22:39;;;;;;;0.50;0.50;;;23.30;70.70;;;;;;5009577;28;20026;-76
2023/08/21 07:25:05;;;;;;;1.20;0.50;;;23.30;71.00;;;;;;5011805;28;20116;-75
2023/08/21 07:27:31;;;;;;;0.82;0.47;;;23.40;70.80;;;;;;5013996;28;20022;-77
2023/08/21 07:29:57;;;;;;;0.55;0.50;;;23.50;70.50;;;;;;5015489;28;20068;-77
2023/08/21 07:32:22;;;;;;;0.57;0.57;;;23.60;69.70;;;;;;5009631;28;20115;-76
2023/08/21 07:34:54;;;;;;;1.20;0.68;;;23.80;69.60;;;;;;5008496;28;20180;-67
2023/08/21 07:37:20;;;;;;;0.67;0.50;;;23.80;69.30;;;;;;5021259;28;20108;-76
2023/08/21 07:39:45;;;;;;;0.60;0.50;;;24.00;68.90;;;;;;4988201;28;20163;-76
2023/08/21 07:42:12;;;;;;;0.60;0.50;;;24.00;68.50;;;;;;5008295;28;20099;-76
2023/08/21 07:44:39;;;;;;;0.50;0.50;;;24.10;68.40;;;;;;5020558;28;20366;-76
2023/08/21 07:47:05;;;;;;;0.82;0.47;;;24.20;67.90;;;;;;5009880;28;20057;-76
2023/08/21 07:49:32;;;;;;;0.47;0.47;;;24.30;67.80;;;;;;5023111;28;20033;-77
2023/08/21 07:51:58;;;;;;;1.13;0.40;;;24.40;67.60;;;;;;5011566;28;20084;-77
2023/08/21 07:54:24;;;;;;;0.50;0.50;;;24.40;67.60;;;;;;5006635;28;20402;-77
2023/08/21 07:56:50;;;;;;;1.63;0.60;;;24.40;67.50;;;;;;5000921;28;20033;-76
2023/08/21 07:59:16;;;;;;;2.30;0.68;;;24.50;67.30;;;;;;5008684;28;20061;-78
2023/08/21 08:01:42;;;;;;;2.45;0.52;;;24.50;66.80;;;;;;5006189;28;20075;-77
2023/08/21 08:04:08;;;;;;;0.63;0.45;;;24.50;66.60;;;;;;5009465;28;20480;-77
2023/08/21 08:06:34;;;;;;;1.13;0.40;;;24.50;66.50;;;;;;5013116;28;20045;-77
2023/08/21 08:09:00;;;;;;;0.68;0.40;;;24.60;66.90;;;;;;5007756;28;20025;-77
2023/08/21 08:11:25;;;;;;;1.27;0.60;;;24.60;67.10;;;;;;4998722;28;20069;-77
2023/08/21 08:13:51;;;;;;;0.50;0.30;;;24.70;67.30;;;;;;5009850;28;20556;-77
2023/08/21 08:16:17;;;;;;;2.25;0.57;;;24.70;67.00;;;;;;5000206;28;20030;-77
2023/08/21 08:18:43;;;;;;;0.50;0.50;;;24.70;66.50;;;;;;5001559;28;20037;-77
2023/08/21 08:21:10;;;;;;;0.60;0.60;;;24.70;66.40;;;;;;4998156;28;20029;-67
2023/08/21 08:23:35;;;;;;;0.60;0.60;;;24.80;65.90;;;;;;4997738;28;20497;-67
2023/08/21 08:26:02;;;;;;;0.50;0.50;;;24.80;66.00;;;;;;5005025;28;20032;-67
2023/08/21 08:28:28;;;;;;;0.73;0.73;;;24.90;65.90;;;;;;5002385;28;20120;-67
2023/08/21 08:30:54;;;;;;;1.15;0.60;;;25.00;65.90;;;;;;4996231;28;20040;-67
2023/08/21 08:33:20;;;;;;;1.45;0.50;;;25.20;65.70;;;;;;5009714;28;20129;-67
2023/08/21 08:35:45;;;;;;;3.08;0.63;;;25.30;65.30;;;;;;5010775;28;20036;-67
2023/08/21 08:38:11;;;;;;;0.60;0.50;;;25.40;65.40;;;;;;5010159;28;20022;-77
2023/08/21 08:40:45;;;;;;;2.58;0.98;;;25.40;65.60;;;;;;5009423;28;20044;-67
2023/08/21 08:43:14;;;;;;;0.95;0.52;;;25.30;64.90;;;;;;5008633;28;20022;-77
2023/08/21 08:45:47;;;;;;;1.17;0.60;;;25.10;63.80;;;;;;5013387;28;20057;-77
2023/08/21 08:48:12;;;;;;;0.60;0.60;;;25.10;64.60;;;;;;5010289;28;20048;-77
2023/08/21 08:50:39;;;;;;;0.77;0.60;;;25.10;64.90;;;;;;4993273;28;20042;-77
2023/08/21 08:53:08;;;;;;;0.43;0.43;;;25.10;64.80;;;;;;5009866;28;20221;-77
2023/08/21 08:55:34;;;;;;;1.75;0.50;;;25.20;64.80;;;;;;5012343;28;20354;-77
2023/08/21 08:57:59;;;;;;;0.77;0.50;;;25.20;64.60;;;;;;5009714;28;20121;-77
2023/08/21 09:00:26;;;;;;;0.57;0.50;;;25.20;64.80;;;;;;5009710;28;20099;-77
2023/08/21 09:02:52;;;;;;;0.95;0.50;;;25.20;64.70;;;;;;5007495;28;20493;-77
2023/08/21 09:05:17;;;;;;;1.73;1.00;;;25.20;64.40;;;;;;5007395;28;20045;-77
2023/08/21 09:07:43;;;;;;;0.73;0.68;;;25.20;64.50;;;;;;5009846;28;20056;-67
2023/08/21 09:10:19;;;;;;;0.88;0.73;;;25.20;64.50;;;;;;5013481;28;20113;-67
2023/08/21 09:12:46;;;;;;;1.33;0.60;;;25.30;64.50;;;;;;5030505;28;20563;-67
2023/08/21 09:15:12;;;;;;;1.45;0.52;;;25.40;64.50;;;;;;5013141;28;20022;-67
2023/08/21 09:17:37;;;;;;;0.52;0.52;;;25.60;64.40;;;;;;4995205;28;20029;-67
2023/08/21 09:20:04;;;;;;;0.45;0.45;;;25.80;64.60;;;;;;5009689;28;20036;-68
2023/08/21 09:22:30;;;;;;;1.05;0.95;;;25.90;63.90;;;;;;5008602;28;20145;-67
2023/08/21 09:25:06;;;;;;;1.05;0.70;;;25.90;63.80;;;;;;5009902;28;20047;-67
2023/08/21 09:27:37;;;;;;;1.38;0.70;;;25.90;63.70;;;;;;5007011;28;20034;-68
2023/08/21 09:30:10;;;;;;;1.25;0.60;;;26.00;63.70;;;;;;5009688;28;20112;-67
2023/08/21 09:32:56;;;;;;;0.55;0.40;;;26.00;63.40;;;;;;5011734;28;20036;-67
2023/08/21 09:35:23;;;;;;;0.85;0.60;;;26.20;63.50;;;;;;5004502;28;20026;-67
2023/08/21 09:37:49;;;;;;;2.88;1.25;;;26.20;62.70;;;;;;5007279;28;20033;-67
2023/08/21 09:40:18;;;;;;;0.52;0.52;;;26.40;62.90;;;;;;5009620;28;20112;-66
2023/08/21 09:42:43;;;;;;;1.27;0.82;;;26.40;61.80;;;;;;5008380;28;20426;-76
2023/08/21 09:45:09;;;;;;;0.68;0.63;;;26.50;61.20;;;;;;5009880;28;20519;-77
2023/08/21 09:47:35;;;;;;;4.45;1.52;;;26.50;61.20;;;;;;5004199;28;20053;-77
2023/08/21 09:50:01;;;;;;;0.85;0.55;;;26.50;61.50;;;;;;5007170;28;20029;-76
2023/08/21 09:52:27;;;;;;;0.55;0.50;;;26.50;61.70;;;;;;4999530;28;20046;-77
2023/08/21 09:54:55;;;;;;;1.50;0.75;;;26.50;62.00;;;;;;5009063;28;20132;-75
2023/08/21 09:57:22;;;;;;;0.70;0.70;;;26.60;61.70;;;;;;5012184;28;20069;-77
2023/08/21 09:59:53;;;;;;;1.45;0.50;;;26.60;61.10;;;;;;5012080;28;20026;-77
2023/08/21 10:02:19;;;;;;;1.48;0.50;;;26.80;61.10;;;;;;5009935;28;20124;-77
2023/08/21 10:04:46;;;;;;;0.73;0.73;;;26.90;61.00;;;;;;5006968;28;20035;-77
2023/08/21 10:07:12;;;;;;;1.05;0.68;;;27.10;60.60;;;;;;5010841;28;20115;-67
2023/08/21 10:09:41;;;;;;;1.45;0.80;;;27.30;60.40;;;;;;5010648;28;20708;-77
2023/08/21 10:12:09;;;;;;;0.75;0.60;;;27.50;59.40;;;;;;5007353;28;20125;-67
2023/08/21 10:14:36;;;;;;;0.88;0.50;;;27.60;57.80;;;;;;5011612;28;20048;-67
2023/08/21 10:17:02;;;;;;;2.88;0.90;;;27.70;58.00;;;;;;5007673;28;20046;-67
2023/08/21 10:19:32;;;;;;;2.58;0.88;;;27.70;57.40;;;;;;5008598;28;20049;-66
2023/08/21 10:21:59;;;;;;;0.80;0.80;;;27.80;56.80;;;;;;5004242;28;20083;-67
2023/08/21 10:24:37;;;;;;;1.08;0.55;;;27.80;57.00;;;;;;5004370;28;20038;-77
2023/08/21 10:27:03;;;;;;;0.85;0.57;;;27.90;56.70;;;;;;5002352;28;20044;-77
2023/08/21 10:29:31;;;;;;;4.32;0.60;;;28.00;57.10;;;;;;5002398;28;20044;-78
2023/08/21 10:32:04;;;;;;;0.63;0.63;;;28.10;56.20;;;;;;5011227;28;20026;-77
2023/08/21 10:34:37;;;;;;;0.60;0.60;;;28.30;56.70;;;;;;5005791;28;20045;-78
2023/08/21 10:37:04;;;;;;;2.78;0.80;;;28.40;56.80;;;;;;5001160;28;20035;-78
2023/08/21 10:39:31;;;;;;;1.88;0.50;;;28.60;56.40;;;;;;5004779;28;20030;-77
2023/08/21 10:42:08;;;;;;;3.33;0.85;;;28.70;54.40;;;;;;5010761;28;20034;-78
2023/08/21 10:44:45;;;;;;;2.10;0.68;;;28.90;54.30;;;;;;5013437;28;20037;-78
2023/08/21 10:47:26;;;;;;;1.17;0.50;;;29.00;52.30;;;;;;5013934;28;20042;-78
2023/08/21 10:49:55;;;;;;;1.25;0.75;;;29.00;52.80;;;;;;5007842;28;20044;-77
2023/08/21 10:52:22;;;;;;;0.40;0.40;;;28.80;52.60;;;;;;5010167;28;20088;-78
2023/08/21 10:54:59;;;;;;;1.58;0.70;;;28.70;53.00;;;;;;5011852;28;20509;-68
2023/08/21 10:57:27;;;;;;;0.40;0.40;;;28.50;52.70;;;;;;5011560;28;20067;-67
2023/08/21 10:59:54;;;;;;;1.08;0.88;;;28.30;53.80;;;;;;5008888;28;20038;-68
2023/08/21 11:02:21;;;;;;;1.08;0.63;;;28.20;52.90;;;;;;5005389;28;20446;-67
2023/08/21 11:04:48;;;;;;;0.85;0.70;;;28.20;52.30;;;;;;5008385;28;20026;-67
2023/08/21 11:07:14;;;;;;;0.85;0.73;;;28.00;52.60;;;;;;5004878;28;20514;-67
2023/08/21 11:09:40;;;;;;;1.20;0.70;;;28.00;53.30;;;;;;5003091;28;20658;-67
2023/08/21 11:12:11;;;;;;;2.38;0.63;;;28.10;53.40;;;;;;4998265;28;20023;-67
2023/08/21 11:14:38;;;;;;;1.52;0.80;;;28.40;52.40;;;;;;5002543;28;20865;-77
2023/08/21 11:17:04;;;;;;;0.75;0.75;;;28.60;52.30;;;;;;5004496;28;20369;-79
2023/08/21 11:19:33;;;;;;;0.80;0.50;;;28.90;52.50;;;;;;4987629;28;20041;-67
2023/08/21 11:22:04;;;;;;;0.45;0.45;;;29.10;52.10;;;;;;4994481;28;20042;-80
2023/08/21 11:24:38;;;;;;;2.92;0.70;;;29.30;52.00;;;;;;5007498;28;20037;-81
2023/08/21 11:27:16;;;;;;;0.50;0.50;;;29.40;50.80;;;;;;5008812;28;20033;-81
2023/08/21 11:29:44;;;;;;;0.45;0.45;;;29.50;50.90;;;;;;5010511;28;20075;-72
2023/08/21 11:32:10;;;;;;;0.43;0.43;;;29.50;50.20;;;;;;5009979;28;20038;-72
2023/08/21 11:34:37;;;;;;;1.33;0.90;;;29.60;50.80;;;;;;5009165;28;20061;-72
2023/08/21 11:37:04;;;;;;;1.02;0.70;;;29.80;51.10;;;;;;5008788;28;20033;-72
2023/08/21 11:39:53;;;;;;;2.17;1.10;;;30.00;50.60;;;;;;5009086;28;20038;-72
2023/08/21 11:42:33;;;;;;;0.95;0.95;;;30.20;49.70;;;;;;5010933;28;20026;-72
2023/08/21 11:45:00;;;;;;;0.70;0.70;;;30.30;49.90;;;;;;5011274;28;20026;-72
2023/08/21 11:47:31;;;;;;;0.47;0.47;;;30.50;49.50;;;;;;5017012;28;20042;-72
2023/08/21 11:50:01;;;;;;;0.40;0.40;;;30.60;48.80;;;;;;5009050;28;20033;-72
2023/08/21 11:52:31;;;;;;;1.05;0.82;;;30.60;49.10;;;;;;5006358;28;20018;-72
2023/08/21 11:54:57;;;;;;;0.75;0.70;;;30.80;48.90;;;;;;5011391;28;20354;-72
2023/08/21 11:57:23;;;;;;;0.70;0.70;;;31.10;48.80;;;;;;4998298;28;20050;-72
2023/08/21 11:59:54;;;;;;;0.93;0.80;;;31.10;47.70;;;;;;5009015;28;20025;-81
2023/08/21 12:02:28;;;;;;;0.82;0.70;;;31.10;48.30;;;;;;5010338;28;20049;-81
2023/08/21 12:05:05;;;;;;;0.40;0.40;;;31.10;47.10;;;;;;5011020;28;20060;-82
2023/08/21 12:07:31;;;;;;;1.42;0.90;;;31.20;47.90;;;;;;5009215;28;20361;-81
2023/08/21 12:09:57;;;;;;;0.77;0.50;;;31.40;48.10;;;;;;5011398;28;20029;-81
2023/08/21 12:12:23;;;;;;;2.45;0.57;;;31.60;48.20;;;;;;5010215;28;20030;-72
2023/08/21 12:14:49;;;;;;;0.60;0.60;;;31.70;47.10;;;;;;5005096;28;20030;-81
2023/08/21 12:17:15;;;;;;;0.50;0.50;;;31.90;47.60;;;;;;5013966;28;20088;-81
2023/08/21 12:19:41;;;;;;;1.80;1.00;;;31.90;46.50;;;;;;5019001;28;20072;-80
2023/08/21 12:22:08;;;;;;;0.70;0.60;;;31.90;44.60;;;;;;5013959;28;20022;-81
2023/08/21 12:24:34;;;;;;;0.80;0.75;;;31.70;45.20;;;;;;5012468;28;20385;-81
2023/08/21 12:26:59;;;;;;;0.60;0.60;;;31.70;46.00;;;;;;5009913;28;20034;-81
2023/08/21 12:29:25;;;;;;;1.77;0.52;;;31.70;45.50;;;;;;5024116;28;20041;-81
2023/08/21 12:31:51;;;;;;;0.70;0.70;;;31.90;44.50;;;;;;5018727;28;20037;-81
2023/08/21 12:34:16;;;;;;;0.50;0.50;;;31.90;43.90;;;;;;5013277;28;20038;-81
2023/08/21 12:36:42;;;;;;;0.70;0.50;;;31.80;44.50;;;;;;5015440;28;20362;-80
2023/08/21 12:39:08;;;;;;;1.02;0.40;;;31.70;44.00;;;;;;5013400;28;20042;-81
2023/08/21 12:41:34;;;;;;;0.60;0.60;;;31.70;44.50;;;;;;5014130;28;20105;-81
2023/08/21 12:44:00;;;;;;;0.60;0.60;;;31.90;43.80;;;;;;5029373;28;20041;-81
2023/08/21 12:46:27;;;;;;;1.67;0.85;;;31.90;44.00;;;;;;5015692;28;20042;-81